sensor_id;sensor_type;location;lat;lon;timestamp;pressure;altitude;pressure_sealevel;temperature;humidity
48041;BME280;33815;48.386;11.738;2023-02-20T00:00:59;97501.59;;;6.11;100.00
48041;BME280;33815;48.386;11.738;2023-02-20T00:03:25;97513.00;;;6.09;100.00
48041;BME280;33815;48.386;11.738;2023-02-20T00:05:50;97513.84;;;6.09;100.00
48041;BME280;33815;48.386;11.738;2023-02-20T00:08:15;97506.69;;;6.13;100.00
48041;BME280;33815;48.386;11.738;2023-02-20T00:10:41;97498.31;;;6.09;100.00
48041;BME280;33815;48.386;11.738;2023-02-20T00:13:06;97507.09;;;6.07;100.00
48041;BME280;33815;48.386;11.738;2023-02-20T00:15:31;97516.41;;;6.09;100.00
48041;BME280;33815;48.386;11.738;2023-02-20T00:17:57;97512.50;;;6.16;100.00
48041;BME280;33815;48.386;11.738;2023-02-20T00:20:23;97515.00;;;6.18;100.00
48041;BME280;33815;48.386;11.738;2023-02-20T00:22:50;97498.63;;;6.17;100.00
48041;BME280;33815;48.386;11.738;2023-02-20T00:25:17;97512.50;;;6.16;100.00
48041;BME280;33815;48.386;11.738;2023-02-20T00:27:43;97491.97;;;6.00;100.00
48041;BME280;33815;48.386;11.738;2023-02-20T00:30:15;97499.25;;;6.21;100.00
48041;BME280;33815;48.386;11.738;2023-02-20T00:32:40;97499.97;;;6.10;100.00
48041;BME280;33815;48.386;11.738;2023-02-20T00:35:09;97507.63;;;6.12;100.00
48041;BME280;33815;48.386;11.738;2023-02-20T00:37:34;97507.00;;;6.08;100.00
48041;BME280;33815;48.386;11.738;2023-02-20T00:39:59;97503.84;;;6.03;100.00
48041;BME280;33815;48.386;11.738;2023-02-20T00:42:25;97507.91;;;6.07;100.00
48041;BME280;33815;48.386;11.738;2023-02-20T00:44:50;97505.44;;;6.06;100.00
48041;BME280;33815;48.386;11.738;2023-02-20T00:47:15;97505.44;;;6.06;100.00
48041;BME280;33815;48.386;11.738;2023-02-20T00:49:40;97506.38;;;6.05;100.00
48041;BME280;33815;48.386;11.738;2023-02-20T00:52:12;97505.25;;;6.09;100.00
48041;BME280;33815;48.386;11.738;2023-02-20T00:54:38;97508.00;;;6.06;100.00
48041;BME280;33815;48.386;11.738;2023-02-20T00:57:03;97496.31;;;6.00;100.00
48041;BME280;33815;48.386;11.738;2023-02-20T00:59:28;97511.19;;;5.96;100.00
48041;BME280;33815;48.386;11.738;2023-02-20T01:01:53;97500.44;;;6.03;100.00
48041;BME280;33815;48.386;11.738;2023-02-20T01:04:19;97516.81;;;6.03;100.00
48041;BME280;33815;48.386;11.738;2023-02-20T01:06:44;97500.28;;;5.91;100.00
48041;BME280;33815;48.386;11.738;2023-02-20T01:09:09;97510.09;;;6.00;100.00
48041;BME280;33815;48.386;11.738;2023-02-20T01:11:36;97502.84;;;6.06;100.00
48041;BME280;33815;48.386;11.738;2023-02-20T01:14:02;97509.50;;;5.95;100.00
48041;BME280;33815;48.386;11.738;2023-02-20T01:16:27;97512.84;;;5.97;100.00
48041;BME280;33815;48.386;11.738;2023-02-20T01:18:52;97504.53;;;5.92;100.00
48041;BME280;33815;48.386;11.738;2023-02-20T01:21:18;97497.56;;;6.07;100.00
48041;BME280;33815;48.386;11.738;2023-02-20T01:23:44;97505.16;;;5.96;100.00
48041;BME280;33815;48.386;11.738;2023-02-20T01:26:09;97499.75;;;6.00;100.00
48041;BME280;33815;48.386;11.738;2023-02-20T01:28:34;97492.16;;;5.97;100.00
48041;BME280;33815;48.386;11.738;2023-02-20T01:30:59;97497.56;;;6.07;100.00
48041;BME280;33815;48.386;11.738;2023-02-20T01:33:25;97489.72;;;6.09;100.00
48041;BME280;33815;48.386;11.738;2023-02-20T01:35:50;97489.19;;;6.04;100.00
48041;BME280;33815;48.386;11.738;2023-02-20T01:38:16;97497.97;;;6.01;100.00
48041;BME280;33815;48.386;11.738;2023-02-20T01:40:46;97485.03;;;6.01;100.00
48041;BME280;33815;48.386;11.738;2023-02-20T01:43:12;97491.78;;;6.04;100.00
48041;BME280;33815;48.386;11.738;2023-02-20T01:45:39;97483.47;;;5.98;100.00
48041;BME280;33815;48.386;11.738;2023-02-20T01:48:04;97487.81;;;5.98;100.00
48041;BME280;33815;48.386;11.738;2023-02-20T01:50:32;97487.81;;;5.98;100.00
48041;BME280;33815;48.386;11.738;2023-02-20T01:53:03;97483.63;;;5.95;100.00
48041;BME280;33815;48.386;11.738;2023-02-20T01:55:33;97476.03;;;6.07;100.00
48041;BME280;33815;48.386;11.738;2023-02-20T01:58:20;97473.66;;;6.04;100.00
48041;BME280;33815;48.386;11.738;2023-02-20T02:00:48;97473.03;;;6.13;100.00
48041;BME280;33815;48.386;11.738;2023-02-20T02:03:25;97473.13;;;5.98;100.00
48041;BME280;33815;48.386;11.738;2023-02-20T02:05:57;97467.88;;;5.86;100.00
48041;BME280;33815;48.386;11.738;2023-02-20T02:08:25;97465.53;;;5.95;100.00
48041;BME280;33815;48.386;11.738;2023-02-20T02:11:04;97481.41;;;6.04;100.00
48041;BME280;33815;48.386;11.738;2023-02-20T02:13:31;97486.13;;;5.97;100.00
48041;BME280;33815;48.386;11.738;2023-02-20T02:16:10;97487.41;;;6.04;100.00
48041;BME280;33815;48.386;11.738;2023-02-20T02:24:46;97476.69;;;5.96;100.00
48041;BME280;33815;48.386;11.738;2023-02-20T02:27:35;97481.78;;;5.97;100.00
48041;BME280;33815;48.386;11.738;2023-02-20T02:30:22;97488.81;;;5.95;100.00
48041;BME280;33815;48.386;11.738;2023-02-20T02:35:38;97483.94;;;5.91;100.00
48041;BME280;33815;48.386;11.738;2023-02-20T02:38:16;97483.00;;;5.92;100.00
48041;BME280;33815;48.386;11.738;2023-02-20T02:41:05;97487.34;;;5.91;100.00
48041;BME280;33815;48.386;11.738;2023-02-20T02:46:06;97472.50;;;5.80;100.00
48041;BME280;33815;48.386;11.738;2023-02-20T02:48:38;97476.97;;;5.78;100.00
48041;BME280;33815;48.386;11.738;2023-02-20T02:51:12;97468.56;;;5.75;100.00
48041;BME280;33815;48.386;11.738;2023-02-20T02:53:40;97477.41;;;5.85;100.00
48041;BME280;33815;48.386;11.738;2023-02-20T02:56:05;97480.72;;;5.87;100.00
48041;BME280;33815;48.386;11.738;2023-02-20T02:58:53;97467.16;;;5.83;100.00
48041;BME280;33815;48.386;11.738;2023-02-20T03:01:20;97462.91;;;5.82;100.00
48041;BME280;33815;48.386;11.738;2023-02-20T03:03:47;97482.72;;;5.96;100.00
48041;BME280;33815;48.386;11.738;2023-02-20T03:06:17;97465.38;;;5.84;100.00
48041;BME280;33815;48.386;11.738;2023-02-20T03:08:57;97465.19;;;5.87;100.00
48041;BME280;33815;48.386;11.738;2023-02-20T03:11:27;97457.94;;;5.79;100.00
48041;BME280;33815;48.386;11.738;2023-02-20T03:14:20;97454.13;;;5.85;100.00
48041;BME280;33815;48.386;11.738;2023-02-20T03:17:14;97449.72;;;5.73;100.00
48041;BME280;33815;48.386;11.738;2023-02-20T03:19:45;97461.00;;;5.72;100.00
48041;BME280;33815;48.386;11.738;2023-02-20T03:22:17;97454.91;;;5.73;100.00
48041;BME280;33815;48.386;11.738;2023-02-20T03:24:45;97464.41;;;5.72;100.00
48041;BME280;33815;48.386;11.738;2023-02-20T03:30:20;97453.66;;;5.65;100.00
48041;BME280;33815;48.386;11.738;2023-02-20T03:32:50;97450.03;;;5.68;100.00
48041;BME280;33815;48.386;11.738;2023-02-20T03:35:38;97449.06;;;5.83;100.00
48041;BME280;33815;48.386;11.738;2023-02-20T03:38:25;97456.66;;;5.72;100.00
48041;BME280;33815;48.386;11.738;2023-02-20T03:41:13;97462.03;;;5.69;100.00
48041;BME280;33815;48.386;11.738;2023-02-20T03:43:59;97460.84;;;5.60;100.00
48041;BME280;33815;48.386;11.738;2023-02-20T03:46:26;97455.44;;;5.51;100.00
48041;BME280;33815;48.386;11.738;2023-02-20T03:49:03;97472.75;;;5.63;100.00
48041;BME280;33815;48.386;11.738;2023-02-20T03:51:29;97477.69;;;5.53;100.00
48041;BME280;33815;48.386;11.738;2023-02-20T03:53:55;97459.78;;;5.50;100.00
48041;BME280;33815;48.386;11.738;2023-02-20T03:56:25;97464.56;;;5.56;100.00
48041;BME280;33815;48.386;11.738;2023-02-20T03:58:57;97453.41;;;5.41;100.00
48041;BME280;33815;48.386;11.738;2023-02-20T04:01:26;97464.22;;;5.48;100.00
48041;BME280;33815;48.386;11.738;2023-02-20T04:03:53;97451.38;;;5.46;100.00
48041;BME280;33815;48.386;11.738;2023-02-20T04:06:23;97465.22;;;5.45;100.00
48041;BME280;33815;48.386;11.738;2023-02-20T04:09:09;97471.91;;;5.35;100.00
48041;BME280;33815;48.386;11.738;2023-02-20T04:11:48;97473.56;;;5.36;100.00
48041;BME280;33815;48.386;11.738;2023-02-20T04:14:17;97477.22;;;5.19;100.00
48041;BME280;33815;48.386;11.738;2023-02-20T04:17:06;97482.00;;;5.11;100.00
48041;BME280;33815;48.386;11.738;2023-02-20T04:19:34;97475.91;;;4.97;100.00
48041;BME280;33815;48.386;11.738;2023-02-20T04:22:02;97468.00;;;4.86;100.00
48041;BME280;33815;48.386;11.738;2023-02-20T04:24:33;97472.97;;;4.89;100.00
48041;BME280;33815;48.386;11.738;2023-02-20T04:26:59;97480.91;;;4.72;100.00
48041;BME280;33815;48.386;11.738;2023-02-20T04:29:25;97476.56;;;4.72;100.00
48041;BME280;33815;48.386;11.738;2023-02-20T04:31:50;97470.78;;;4.69;100.00
48041;BME280;33815;48.386;11.738;2023-02-20T04:34:16;97476.66;;;4.56;100.00
48041;BME280;33815;48.386;11.738;2023-02-20T04:36:41;97468.72;;;4.59;100.00
48041;BME280;33815;48.386;11.738;2023-02-20T04:39:06;97479.97;;;4.44;100.00
48041;BME280;33815;48.386;11.738;2023-02-20T04:41:31;97471.84;;;4.50;100.00
48041;BME280;33815;48.386;11.738;2023-02-20T04:43:57;97479.28;;;4.40;100.00
48041;BME280;33815;48.386;11.738;2023-02-20T04:46:40;97476.06;;;4.37;100.00
48041;BME280;33815;48.386;11.738;2023-02-20T04:49:05;97467.41;;;4.38;100.00
48041;BME280;33815;48.386;11.738;2023-02-20T04:51:31;97463.16;;;4.37;100.00
48041;BME280;33815;48.386;11.738;2023-02-20T04:53:56;97454.75;;;4.19;100.00
48041;BME280;33815;48.386;11.738;2023-02-20T04:56:21;97468.94;;;4.26;100.00
48041;BME280;33815;48.386;11.738;2023-02-20T04:58:47;97464.06;;;4.21;100.00
48041;BME280;33815;48.386;11.738;2023-02-20T05:01:13;97478.44;;;4.25;100.00
48041;BME280;33815;48.386;11.738;2023-02-20T05:03:38;97480.28;;;4.23;100.00
48041;BME280;33815;48.386;11.738;2023-02-20T05:06:04;97478.88;;;4.18;100.00
48041;BME280;33815;48.386;11.738;2023-02-20T05:08:30;97477.28;;;4.15;100.00
48041;BME280;33815;48.386;11.738;2023-02-20T05:10:56;97490.84;;;4.04;100.00
48041;BME280;33815;48.386;11.738;2023-02-20T05:13:21;97492.00;;;3.99;100.00
48041;BME280;33815;48.386;11.738;2023-02-20T05:15:46;97487.50;;;4.02;100.00
48041;BME280;33815;48.386;11.738;2023-02-20T05:18:11;97486.19;;;3.95;100.00
48041;BME280;33815;48.386;11.738;2023-02-20T05:20:37;97490.75;;;3.90;100.00
48041;BME280;33815;48.386;11.738;2023-02-20T05:23:20;97498.75;;;3.85;100.00
48041;BME280;33815;48.386;11.738;2023-02-20T05:25:46;97488.03;;;3.77;100.00
48041;BME280;33815;48.386;11.738;2023-02-20T05:28:11;97492.88;;;3.83;100.00
48041;BME280;33815;48.386;11.738;2023-02-20T05:30:36;97470.66;;;3.65;100.00
48041;BME280;33815;48.386;11.738;2023-02-20T05:33:01;97478.06;;;3.71;100.00
48041;BME280;33815;48.386;11.738;2023-02-20T05:35:26;97484.59;;;3.62;100.00
48041;BME280;33815;48.386;11.738;2023-02-20T05:37:52;97483.09;;;3.58;100.00
48041;BME280;33815;48.386;11.738;2023-02-20T05:40:17;97489.66;;;3.64;100.00
48041;BME280;33815;48.386;11.738;2023-02-20T05:42:42;97497.28;;;3.65;100.00
48041;BME280;33815;48.386;11.738;2023-02-20T05:45:08;97499.78;;;3.67;100.00
48041;BME280;33815;48.386;11.738;2023-02-20T05:47:36;97485.41;;;3.47;100.00
48041;BME280;33815;48.386;11.738;2023-02-20T05:50:01;97501.72;;;3.47;100.00
48041;BME280;33815;48.386;11.738;2023-02-20T05:52:27;97506.03;;;3.47;100.00
48041;BME280;33815;48.386;11.738;2023-02-20T05:54:52;97510.03;;;3.52;100.00
48041;BME280;33815;48.386;11.738;2023-02-20T05:57:17;97510.50;;;3.59;100.00
48041;BME280;33815;48.386;11.738;2023-02-20T05:59:42;97512.84;;;3.48;100.00
48041;BME280;33815;48.386;11.738;2023-02-20T06:02:08;97508.63;;;3.47;100.00
48041;BME280;33815;48.386;11.738;2023-02-20T06:04:33;97507.38;;;3.54;100.00
48041;BME280;33815;48.386;11.738;2023-02-20T06:06:58;97511.00;;;3.66;100.00
48041;BME280;33815;48.386;11.738;2023-02-20T06:09:24;97493.63;;;3.53;100.00
48041;BME280;33815;48.386;11.738;2023-02-20T06:11:54;97509.75;;;3.73;100.00
48041;BME280;33815;48.386;11.738;2023-02-20T06:14:22;97515.44;;;3.64;100.00
48041;BME280;33815;48.386;11.738;2023-02-20T06:16:47;97492.38;;;3.45;100.00
48041;BME280;33815;48.386;11.738;2023-02-20T06:19:23;97515.66;;;3.75;100.00
48041;BME280;33815;48.386;11.738;2023-02-20T06:21:49;97521.91;;;3.71;100.00
48041;BME280;33815;48.386;11.738;2023-02-20T06:24:16;97522.22;;;3.81;100.00
48041;BME280;33815;48.386;11.738;2023-02-20T06:26:42;97518.97;;;3.77;100.00
48041;BME280;33815;48.386;11.738;2023-02-20T06:29:08;97524.81;;;3.81;100.00
48041;BME280;33815;48.386;11.738;2023-02-20T06:31:33;97520.03;;;4.05;100.00
48041;BME280;33815;48.386;11.738;2023-02-20T06:33:58;97509.66;;;3.90;100.00
48041;BME280;33815;48.386;11.738;2023-02-20T06:36:26;97524.00;;;4.10;100.00
48041;BME280;33815;48.386;11.738;2023-02-20T06:38:52;97519.28;;;4.03;100.00
48041;BME280;33815;48.386;11.738;2023-02-20T06:41:18;97516.41;;;3.93;100.00
48041;BME280;33815;48.386;11.738;2023-02-20T06:43:43;97527.13;;;4.01;100.00
48041;BME280;33815;48.386;11.738;2023-02-20T06:46:09;97536.91;;;4.10;100.00
48041;BME280;33815;48.386;11.738;2023-02-20T06:48:34;97538.41;;;4.15;100.00
48041;BME280;33815;48.386;11.738;2023-02-20T06:50:59;97531.56;;;4.29;100.00
48041;BME280;33815;48.386;11.738;2023-02-20T06:53:25;97538.13;;;4.35;100.00
48041;BME280;33815;48.386;11.738;2023-02-20T06:55:50;97533.38;;;4.27;100.00
48041;BME280;33815;48.386;11.738;2023-02-20T06:58:15;97536.72;;;4.29;100.00
48041;BME280;33815;48.386;11.738;2023-02-20T07:00:40;97542.50;;;4.33;100.00
48041;BME280;33815;48.386;11.738;2023-02-20T07:03:06;97541.19;;;4.26;100.00
48041;BME280;33815;48.386;11.738;2023-02-20T07:05:31;97550.53;;;4.28;100.00
48041;BME280;33815;48.386;11.738;2023-02-20T07:07:56;97557.00;;;4.36;100.00
48041;BME280;33815;48.386;11.738;2023-02-20T07:10:21;97547.22;;;4.26;100.00
48041;BME280;33815;48.386;11.738;2023-02-20T07:12:47;97561.38;;;4.50;100.00
48041;BME280;33815;48.386;11.738;2023-02-20T07:15:12;97525.84;;;4.39;100.00
48041;BME280;33815;48.386;11.738;2023-02-20T07:17:37;97542.78;;;4.28;100.00
48041;BME280;33815;48.386;11.738;2023-02-20T07:20:04;97558.66;;;4.37;100.00
48041;BME280;33815;48.386;11.738;2023-02-20T07:22:29;97566.69;;;4.32;100.00
48041;BME280;33815;48.386;11.738;2023-02-20T07:24:54;97561.34;;;4.35;100.00
48041;BME280;33815;48.386;11.738;2023-02-20T07:27:20;97556.03;;;4.22;100.00
48041;BME280;33815;48.386;11.738;2023-02-20T07:29:47;97542.19;;;4.23;100.00
48041;BME280;33815;48.386;11.738;2023-02-20T07:32:14;97564.34;;;4.27;100.00
48041;BME280;33815;48.386;11.738;2023-02-20T07:34:41;97557.69;;;4.23;100.00
48041;BME280;33815;48.386;11.738;2023-02-20T07:37:07;97543.25;;;4.05;100.00
48041;BME280;33815;48.386;11.738;2023-02-20T07:39:32;97541.06;;;4.13;100.00
48041;BME280;33815;48.386;11.738;2023-02-20T07:41:57;97551.78;;;4.21;100.00
48041;BME280;33815;48.386;11.738;2023-02-20T07:44:23;97543.16;;;4.22;100.00
48041;BME280;33815;48.386;11.738;2023-02-20T07:46:48;97540.50;;;4.38;100.00
48041;BME280;33815;48.386;11.738;2023-02-20T07:49:13;97536.06;;;4.85;100.00
48041;BME280;33815;48.386;11.738;2023-02-20T07:51:38;97539.66;;;5.26;100.00
48041;BME280;33815;48.386;11.738;2023-02-20T07:54:04;97529.75;;;5.47;100.00
48041;BME280;33815;48.386;11.738;2023-02-20T07:56:29;97519.47;;;5.74;100.00
48041;BME280;33815;48.386;11.738;2023-02-20T07:58:54;97520.94;;;6.06;100.00
48041;BME280;33815;48.386;11.738;2023-02-20T08:01:20;97518.63;;;6.28;100.00
48041;BME280;33815;48.386;11.738;2023-02-20T08:03:45;97506.47;;;6.56;100.00
48041;BME280;33815;48.386;11.738;2023-02-20T08:06:12;97520.25;;;6.69;99.23
48041;BME280;33815;48.386;11.738;2023-02-20T08:08:38;97523.56;;;6.84;98.65
48041;BME280;33815;48.386;11.738;2023-02-20T08:11:04;97511.34;;;6.99;95.63
48041;BME280;33815;48.386;11.738;2023-02-20T08:13:30;97508.31;;;6.93;94.60
48041;BME280;33815;48.386;11.738;2023-02-20T08:15:55;97519.22;;;6.85;96.10
48041;BME280;33815;48.386;11.738;2023-02-20T08:18:20;97508.66;;;6.88;95.63
48041;BME280;33815;48.386;11.738;2023-02-20T08:20:46;97507.69;;;7.15;94.06
48041;BME280;33815;48.386;11.738;2023-02-20T08:23:18;97513.34;;;7.46;93.42
48041;BME280;33815;48.386;11.738;2023-02-20T08:25:43;97502.22;;;7.81;91.82
48041;BME280;33815;48.386;11.738;2023-02-20T08:28:09;97484.19;;;8.15;88.41
48041;BME280;33815;48.386;11.738;2023-02-20T08:30:34;97498.25;;;8.12;87.12
48041;BME280;33815;48.386;11.738;2023-02-20T08:32:59;97495.53;;;7.89;86.55
48041;BME280;33815;48.386;11.738;2023-02-20T08:35:26;97490.22;;;7.67;87.70
48041;BME280;33815;48.386;11.738;2023-02-20T08:37:51;97503.25;;;7.78;88.17
48041;BME280;33815;48.386;11.738;2023-02-20T08:40:17;97484.88;;;7.57;87.90
48041;BME280;33815;48.386;11.738;2023-02-20T08:42:42;97494.94;;;7.86;86.70
48041;BME280;33815;48.386;11.738;2023-02-20T08:45:08;97491.09;;;7.67;87.19
48041;BME280;33815;48.386;11.738;2023-02-20T08:47:33;97484.91;;;7.81;89.13
48041;BME280;33815;48.386;11.738;2023-02-20T08:49:59;97469.69;;;7.64;88.38
48041;BME280;33815;48.386;11.738;2023-02-20T08:52:24;97469.03;;;7.49;87.76
48041;BME280;33815;48.386;11.738;2023-02-20T08:54:49;97467.94;;;7.27;90.02
48041;BME280;33815;48.386;11.738;2023-02-20T08:57:16;97452.41;;;7.51;89.37
48041;BME280;33815;48.386;11.738;2023-02-20T08:59:42;97451.59;;;7.75;88.81
48041;BME280;33815;48.386;11.738;2023-02-20T09:02:13;97432.31;;;7.91;85.28
48041;BME280;33815;48.386;11.738;2023-02-20T09:04:42;97447.50;;;8.08;84.51
48041;BME280;33815;48.386;11.738;2023-02-20T09:07:08;97452.56;;;8.56;82.47
48041;BME280;33815;48.386;11.738;2023-02-20T09:09:33;97455.19;;;8.68;81.05
48041;BME280;33815;48.386;11.738;2023-02-20T09:11:58;97438.06;;;8.77;81.52
48041;BME280;33815;48.386;11.738;2023-02-20T09:14:23;97461.81;;;9.29;80.28
48041;BME280;33815;48.386;11.738;2023-02-20T09:16:51;97454.09;;;9.27;78.85
48041;BME280;33815;48.386;11.738;2023-02-20T09:19:16;97455.44;;;8.99;78.67
48041;BME280;33815;48.386;11.738;2023-02-20T09:21:45;97447.25;;;8.69;79.95
48041;BME280;33815;48.386;11.738;2023-02-20T09:24:11;97461.22;;;8.57;79.54
48041;BME280;33815;48.386;11.738;2023-02-20T09:26:36;97457.53;;;8.48;79.83
48041;BME280;33815;48.386;11.738;2023-02-20T09:29:01;97454.34;;;8.56;80.17
48041;BME280;33815;48.386;11.738;2023-02-20T09:31:27;97455.53;;;8.52;79.57
48041;BME280;33815;48.386;11.738;2023-02-20T09:33:52;97440.66;;;8.65;80.97
48041;BME280;33815;48.386;11.738;2023-02-20T09:36:17;97432.41;;;8.83;79.63
48041;BME280;33815;48.386;11.738;2023-02-20T09:38:42;97429.44;;;8.87;78.57
48041;BME280;33815;48.386;11.738;2023-02-20T09:41:25;97425.28;;;8.73;78.41
48041;BME280;33815;48.386;11.738;2023-02-20T09:44:00;97415.25;;;8.69;79.21
48041;BME280;33815;48.386;11.738;2023-02-20T09:46:30;97416.44;;;8.53;78.95
48041;BME280;33815;48.386;11.738;2023-02-20T09:49:04;97423.19;;;8.56;78.16
48041;BME280;33815;48.386;11.738;2023-02-20T09:51:35;97413.22;;;8.50;79.61
48041;BME280;33815;48.386;11.738;2023-02-20T09:54:18;97396.78;;;8.38;79.80
48041;BME280;33815;48.386;11.738;2023-02-20T09:56:50;97403.97;;;8.34;78.72
48041;BME280;33815;48.386;11.738;2023-02-20T09:59:20;97390.72;;;8.15;77.12
48041;BME280;33815;48.386;11.738;2023-02-20T10:02:17;97415.38;;;8.45;78.14
48041;BME280;33815;48.386;11.738;2023-02-20T10:04:48;97407.47;;;8.57;77.52
48041;BME280;33815;48.386;11.738;2023-02-20T10:07:24;97397.53;;;8.85;75.85
48041;BME280;33815;48.386;11.738;2023-02-20T10:09:51;97393.47;;;9.26;72.38
48041;BME280;33815;48.386;11.738;2023-02-20T10:12:31;97398.13;;;9.55;69.71
48041;BME280;33815;48.386;11.738;2023-02-20T10:15:28;97392.03;;;10.20;68.72
48041;BME280;33815;48.386;11.738;2023-02-20T10:18:07;97385.44;;;10.37;66.21
48041;BME280;33815;48.386;11.738;2023-02-20T10:23:16;97381.09;;;10.88;65.74
48041;BME280;33815;48.386;11.738;2023-02-20T10:25:49;97374.53;;;10.93;63.50
48041;BME280;33815;48.386;11.738;2023-02-20T10:28:17;97371.81;;;10.64;64.04
48041;BME280;33815;48.386;11.738;2023-02-20T10:33:46;97361.75;;;10.80;65.55
48041;BME280;33815;48.386;11.738;2023-02-20T10:36:34;97365.31;;;10.89;62.34
48041;BME280;33815;48.386;11.738;2023-02-20T10:39:07;97360.44;;;10.65;62.29
48041;BME280;33815;48.386;11.738;2023-02-20T10:44:25;97340.94;;;11.00;58.82
48041;BME280;33815;48.386;11.738;2023-02-20T10:47:05;97342.31;;;11.04;58.10
48041;BME280;33815;48.386;11.738;2023-02-20T10:49:43;97354.16;;;11.28;58.80
48041;BME280;33815;48.386;11.738;2023-02-20T10:52:16;97330.53;;;11.49;58.16
48041;BME280;33815;48.386;11.738;2023-02-20T10:54:49;97328.59;;;12.00;58.31
48041;BME280;33815;48.386;11.738;2023-02-20T10:57:29;97313.16;;;12.16;56.81
48041;BME280;33815;48.386;11.738;2023-02-20T11:00:00;97308.69;;;12.37;55.91
48041;BME280;33815;48.386;11.738;2023-02-20T11:02:33;97299.28;;;12.44;55.17
48041;BME280;33815;48.386;11.738;2023-02-20T11:05:06;97300.31;;;12.33;54.00
48041;BME280;33815;48.386;11.738;2023-02-20T11:07:32;97302.38;;;12.29;54.68
48041;BME280;33815;48.386;11.738;2023-02-20T11:09:58;97280.19;;;12.43;54.82
48041;BME280;33815;48.386;11.738;2023-02-20T11:12:36;97283.38;;;12.65;53.87
48041;BME280;33815;48.386;11.738;2023-02-20T11:15:09;97284.41;;;12.54;53.31
48041;BME280;33815;48.386;11.738;2023-02-20T11:17:37;97285.38;;;12.53;53.82
48041;BME280;33815;48.386;11.738;2023-02-20T11:20:04;97288.03;;;12.71;54.55
48041;BME280;33815;48.386;11.738;2023-02-20T11:22:44;97293.00;;;12.92;53.48
48041;BME280;33815;48.386;11.738;2023-02-20T11:25:22;97283.22;;;13.30;53.78
48041;BME280;33815;48.386;11.738;2023-02-20T11:27:51;97270.81;;;13.50;51.36
48041;BME280;33815;48.386;11.738;2023-02-20T11:30:25;97267.31;;;13.86;50.56
48041;BME280;33815;48.386;11.738;2023-02-20T11:33:00;97260.94;;;13.62;50.04
48041;BME280;33815;48.386;11.738;2023-02-20T11:35:29;97268.94;;;13.61;53.55
48041;BME280;33815;48.386;11.738;2023-02-20T11:42:02;97240.41;;;13.58;50.47
48041;BME280;33815;48.386;11.738;2023-02-20T11:44:17;97251.91;;;13.39;51.12
48041;BME280;33815;48.386;11.738;2023-02-20T11:46:43;97247.31;;;13.41;51.13
48041;BME280;33815;48.386;11.738;2023-02-20T11:49:24;97250.31;;;13.46;54.65
48041;BME280;33815;48.386;11.738;2023-02-20T11:51:50;97242.13;;;13.67;50.79
48041;BME280;33815;48.386;11.738;2023-02-20T11:54:21;97239.31;;;13.86;50.96
48041;BME280;33815;48.386;11.738;2023-02-20T11:59:41;97225.53;;;13.58;51.37
48041;BME280;33815;48.386;11.738;2023-02-20T12:02:21;97222.63;;;13.87;51.17
48041;BME280;33815;48.386;11.738;2023-02-20T12:07:35;97211.78;;;13.82;51.05
48041;BME280;33815;48.386;11.738;2023-02-20T12:10:24;97203.84;;;14.00;50.92
48041;BME280;33815;48.386;11.738;2023-02-20T12:12:52;97207.16;;;14.11;49.99
48041;BME280;33815;48.386;11.738;2023-02-20T12:15:21;97203.59;;;13.85;51.33
48041;BME280;33815;48.386;11.738;2023-02-20T12:18:08;97185.72;;;13.54;50.90
48041;BME280;33815;48.386;11.738;2023-02-20T12:20:43;97186.84;;;13.78;52.00
48041;BME280;33815;48.386;11.738;2023-02-20T12:23:17;97198.91;;;14.40;51.00
48041;BME280;33815;48.386;11.738;2023-02-20T12:26:20;97187.16;;;14.52;49.91
48041;BME280;33815;48.386;11.738;2023-02-20T12:29:07;97173.06;;;14.53;50.31
48041;BME280;33815;48.386;11.738;2023-02-20T12:31:47;97181.19;;;14.26;48.76
48041;BME280;33815;48.386;11.738;2023-02-20T12:34:29;97181.25;;;14.50;49.70
48041;BME280;33815;48.386;11.738;2023-02-20T12:42:30;97163.56;;;14.61;48.29
48041;BME280;33815;48.386;11.738;2023-02-20T12:45:20;97153.44;;;14.66;48.03
48041;BME280;33815;48.386;11.738;2023-02-20T12:47:56;97159.19;;;14.86;47.76
48041;BME280;33815;48.386;11.738;2023-02-20T12:50:50;97153.47;;;14.99;48.49
48041;BME280;33815;48.386;11.738;2023-02-20T12:53:45;97139.50;;;15.15;47.26
48041;BME280;33815;48.386;11.738;2023-02-20T12:56:28;97138.22;;;14.86;46.08
48041;BME280;33815;48.386;11.738;2023-02-20T13:01:45;97116.88;;;15.05;47.13
48041;BME280;33815;48.386;11.738;2023-02-20T13:04:22;97108.66;;;15.17;47.80
48041;BME280;33815;48.386;11.738;2023-02-20T13:07:03;97105.53;;;15.30;46.01
48041;BME280;33815;48.386;11.738;2023-02-20T13:09:36;97100.09;;;15.39;46.15
48041;BME280;33815;48.386;11.738;2023-02-20T13:12:14;97098.31;;;15.32;47.84
48041;BME280;33815;48.386;11.738;2023-02-20T13:17:41;97116.19;;;15.28;47.68
48041;BME280;33815;48.386;11.738;2023-02-20T13:20:19;97102.91;;;15.13;47.60
48041;BME280;33815;48.386;11.738;2023-02-20T13:23:03;97101.31;;;15.04;45.92
48041;BME280;33815;48.386;11.738;2023-02-20T13:25:39;97105.94;;;15.58;46.78
48041;BME280;33815;48.386;11.738;2023-02-20T13:30:38;97102.00;;;15.62;45.40
48041;BME280;33815;48.386;11.738;2023-02-20T13:33:12;97099.66;;;15.84;45.22
48041;BME280;33815;48.386;11.738;2023-02-20T13:38:14;97094.91;;;15.79;45.73
48041;BME280;33815;48.386;11.738;2023-02-20T13:40:44;97092.59;;;15.68;43.90
48041;BME280;33815;48.386;11.738;2023-02-20T13:56:15;97045.22;;;15.53;43.68
48041;BME280;33815;48.386;11.738;2023-02-20T13:58:41;97059.31;;;15.60;44.10
48041;BME280;33815;48.386;11.738;2023-02-20T14:01:06;97052.25;;;15.61;42.89
48041;BME280;33815;48.386;11.738;2023-02-20T14:03:33;97058.97;;;15.07;43.17
48041;BME280;33815;48.386;11.738;2023-02-20T14:06:06;97047.94;;;15.12;41.63
48041;BME280;33815;48.386;11.738;2023-02-20T14:08:33;97052.91;;;14.98;41.99